TimeEDT,TemperatureF,Dew PointF,Humidity,Sea Level PressureIn,VisibilityMPH,Wind Direction,Wind SpeedMPH,Gust SpeedMPH,PrecipitationIn,Events,Conditions,WindDirDegrees,DateUTC
12:53 AM,77.0,75.0,94,29.89,10.0,South,5.8,-,N/A,,Scattered Clouds,190,2012-10-02 04:53:00
1:53 AM,77.0,73.4,89,29.90,10.0,South,6.9,-,N/A,Rain,Light Rain,170,2012-10-02 05:53:00
2:00 AM,77.0,73.4,89,29.90,10.0,SSW,3.5,-,0.00,Rain,Light Rain,200,2012-10-02 06:00:00
2:53 AM,75.0,73.0,94,29.90,10.0,SW,10.4,-,0.01,,Mostly Cloudy,230,2012-10-02 06:53:00
3:53 AM,75.0,73.0,94,29.88,10.0,SSW,4.6,-,0.03,,Clear,200,2012-10-02 07:53:00
4:53 AM,75.0,73.0,94,29.89,10.0,WSW,4.6,-,N/A,,Clear,240,2012-10-02 08:53:00
5:53 AM,75.0,72.0,90,29.91,10.0,SSW,8.1,-,0.06,Rain,Light Rain,200,2012-10-02 09:53:00
6:53 AM,73.9,72.0,93,29.93,5.0,WSW,4.6,-,0.10,Rain,Light Rain,250,2012-10-02 10:53:00
7:29 AM,75.2,73.4,94,29.94,10.0,Calm,Calm,-,0.01,,Mostly Cloudy,0,2012-10-02 11:29:00
7:45 AM,75.2,73.4,94,29.94,10.0,Calm,Calm,-,0.01,,Scattered Clouds,0,2012-10-02 11:45:00
7:53 AM,75.9,73.0,91,29.95,10.0,Calm,Calm,-,0.01,,Overcast,0,2012-10-02 11:53:00
8:53 AM,78.1,75.0,90,29.96,10.0,Calm,Calm,-,N/A,,Scattered Clouds,0,2012-10-02 12:53:00
9:53 AM,80.1,75.9,87,29.98,10.0,South,4.6,-,N/A,,Scattered Clouds,170,2012-10-02 13:53:00
10:53 AM,81.0,75.9,85,29.99,10.0,SSE,4.6,-,N/A,,Mostly Cloudy,160,2012-10-02 14:53:00
11:53 AM,84.0,75.9,76,30.00,10.0,SSW,8.1,-,N/A,,Mostly Cloudy,210,2012-10-02 15:53:00
12:53 PM,86.0,73.9,67,29.98,10.0,South,8.1,-,N/A,,Scattered Clouds,180,2012-10-02 16:53:00
1:53 PM,84.9,73.9,69,29.97,10.0,SSE,10.4,-,0.00,Rain,Light Rain,150,2012-10-02 17:53:00
2:53 PM,86.0,75.0,70,29.94,10.0,SE,17.3,21.9,0.00,Rain,Light Rain,140,2012-10-02 18:53:00
3:53 PM,86.0,73.4,66,29.93,10.0,South,10.4,-,N/A,,Mostly Cloudy,170,2012-10-02 19:53:00
4:53 PM,82.9,73.0,72,29.95,10.0,SSW,8.1,-,0.00,Rain,Rain,200,2012-10-02 20:53:00
5:53 PM,84.9,73.9,69,29.97,10.0,South,4.6,-,0.00,,Scattered Clouds,190,2012-10-02 21:53:00
6:53 PM,82.9,75.0,77,29.97,10.0,South,9.2,-,N/A,,Mostly Cloudy,170,2012-10-02 22:53:00
7:26 PM,78.8,73.4,83,29.99,2.0,SSW,12.7,18.4,0.25,Rain,Rain,210,2012-10-02 23:26:00
7:33 PM,75.2,73.4,94,29.98,5.0,West,24.2,33.4,0.65,Rain,Heavy Rain,260,2012-10-02 23:33:00
7:40 PM,75.2,73.4,94,29.99,5.0,West,13.8,29.9,0.67,Rain,Light Rain,270,2012-10-02 23:40:00
7:53 PM,75.9,75.0,97,30.01,4.0,SSW,10.4,-,0.94,Rain,Heavy Rain,210,2012-10-02 23:53:00
8:09 PM,75.2,75.2,100,30.01,8.0,South,10.4,-,0.03,Rain,Light Rain,190,2012-10-03 00:09:00
8:53 PM,75.9,73.0,91,30.04,10.0,SSW,3.5,-,0.06,,Mostly Cloudy,200,2012-10-03 00:53:00
9:53 PM,75.9,73.9,94,30.06,10.0,Calm,Calm,-,0.00,,Scattered Clouds,0,2012-10-03 01:53:00
10:53 PM,77.0,73.9,90,30.07,10.0,Calm,Calm,-,N/A,,Scattered Clouds,0,2012-10-03 02:53:00
11:53 PM,77.0,73.9,90,30.08,10.0,South,3.5,-,0.00,Rain,Light Rain,170,2012-10-03 03:53:00